createdAt,value
2023-03-08T00:01:14.683Z,20.75
2023-03-08T00:03:43.245Z,19.90
2023-03-08T00:06:14.509Z,21.33
2023-03-08T00:08:43.362Z,21.40
2023-03-08T00:11:13.511Z,20.83
2023-03-08T00:13:42.575Z,20.92
2023-03-08T00:16:14.827Z,20.98
2023-03-08T00:18:43.427Z,20.98
2023-03-08T00:21:13.694Z,20.95
2023-03-08T00:23:43.079Z,21.55
2023-03-08T00:26:11.979Z,21.08
2023-03-08T00:28:40.564Z,21.88
2023-03-08T00:31:11.834Z,20.65
2023-03-08T00:33:42.248Z,21.98
2023-03-08T00:36:16.070Z,22.02
2023-03-08T00:38:45.006Z,21.08
2023-03-08T00:41:13.514Z,21.30
2023-03-08T00:43:42.578Z,20.52
2023-03-08T00:46:11.969Z,20.55
2023-03-08T00:48:42.273Z,20.73
2023-03-08T00:51:13.368Z,19.85
2023-03-08T00:53:41.598Z,20.50
2023-03-08T00:56:09.828Z,19.83
2023-03-08T00:58:39.797Z,20.35
2023-03-08T01:01:09.327Z,21.50
2023-03-08T01:03:37.624Z,20.60
2023-03-08T01:06:10.597Z,20.45
2023-03-08T01:08:40.108Z,19.33
2023-03-08T01:11:08.957Z,18.88
2023-03-08T01:13:37.595Z,19.00
2023-03-08T01:16:06.041Z,18.17
2023-03-08T01:18:34.367Z,18.33
2023-03-08T01:21:04.719Z,18.55
2023-03-08T01:23:34.326Z,17.73
2023-03-08T01:26:03.926Z,17.45
2023-03-08T01:28:32.939Z,16.40
2023-03-08T01:31:06.360Z,17.10
2023-03-08T01:33:36.246Z,16.80
2023-03-08T01:36:05.808Z,15.73
2023-03-08T01:38:35.719Z,15.00
2023-03-08T01:41:06.177Z,15.50
2023-03-08T01:43:37.319Z,14.20
2023-03-08T01:46:12.114Z,12.93
2023-03-08T01:48:44.737Z,12.55
2023-03-08T01:51:16.423Z,13.43
2023-03-08T01:53:46.430Z,13.35
2023-03-08T01:56:16.544Z,12.73
2023-03-08T01:58:47.115Z,13.07
2023-03-08T02:01:17.744Z,12.45
2023-03-08T02:03:46.749Z,12.40
2023-03-08T02:06:17.380Z,12.35
2023-03-08T02:08:46.960Z,12.20
2023-03-08T02:11:17.431Z,12.45
2023-03-08T02:13:46.181Z,11.82
2023-03-08T02:16:16.698Z,11.45
2023-03-08T02:18:56.470Z,11.07
2023-03-08T02:21:24.851Z,10.90
2023-03-08T02:23:54.961Z,11.38
2023-03-08T02:26:23.857Z,11.00
2023-03-08T02:28:52.001Z,11.30
2023-03-08T02:31:20.137Z,12.02
2023-03-08T02:33:48.761Z,12.23
2023-03-08T02:36:16.910Z,11.73
2023-03-08T02:38:45.069Z,11.68
2023-03-08T02:41:15.035Z,12.85
2023-03-08T02:43:43.362Z,11.52
2023-03-08T02:46:13.065Z,11.35
2023-03-08T02:48:41.525Z,11.30
2023-03-08T02:51:10.331Z,12.30
2023-03-08T02:53:38.571Z,12.15
2023-03-08T02:56:07.527Z,11.73
2023-03-08T02:58:37.105Z,12.07
2023-03-08T03:01:05.274Z,11.98
2023-03-08T03:03:33.817Z,11.30
2023-03-08T03:06:02.055Z,11.63
2023-03-08T03:08:31.333Z,10.73
2023-03-08T03:10:59.993Z,11.02
2023-03-08T03:13:28.169Z,10.85
2023-03-08T03:15:58.051Z,12.15
2023-03-08T03:18:26.682Z,11.65
2023-03-08T03:20:54.918Z,13.48
2023-03-08T03:23:23.084Z,12.73
2023-03-08T03:25:51.221Z,12.30
2023-03-08T03:28:19.987Z,11.63
2023-03-08T03:30:49.060Z,12.52
2023-03-08T03:33:18.658Z,13.13
2023-03-08T03:35:47.363Z,11.57
2023-03-08T03:38:15.685Z,12.45
2023-03-08T03:40:43.832Z,9.75
2023-03-08T03:43:12.391Z,10.25
2023-03-08T03:45:40.537Z,10.73
2023-03-08T03:48:08.811Z,10.20
2023-03-08T03:50:38.711Z,9.88
2023-03-08T03:53:06.852Z,9.93
2023-03-08T03:55:34.981Z,10.40
2023-03-08T03:58:03.604Z,9.82
2023-03-08T04:00:31.846Z,9.48
2023-03-08T04:03:00.053Z,9.43
2023-03-08T04:05:28.676Z,9.00
2023-03-08T04:07:58.423Z,9.13
2023-03-08T04:10:26.616Z,8.95
2023-03-08T04:12:55.103Z,8.63
2023-03-08T04:15:23.516Z,8.23
2023-03-08T04:17:52.725Z,8.77
2023-03-08T04:20:21.344Z,8.55
2023-03-08T04:22:49.922Z,8.88
2023-03-08T04:25:19.671Z,9.05
2023-03-08T04:27:48.022Z,8.55
2023-03-08T04:30:16.630Z,9.50
2023-03-08T04:32:44.925Z,8.77
2023-03-08T04:35:13.131Z,9.35
2023-03-08T04:37:41.527Z,8.18
2023-03-08T04:40:11.179Z,8.80
2023-03-08T04:42:41.200Z,8.40
2023-03-08T04:45:10.412Z,8.95
2023-03-08T04:47:38.662Z,8.43
2023-03-08T04:50:08.412Z,8.50
2023-03-08T04:52:36.666Z,8.73
2023-03-08T04:55:05.461Z,8.80
2023-03-08T04:57:35.408Z,9.27
2023-03-08T05:00:06.071Z,8.48
2023-03-08T05:02:34.582Z,9.70
2023-03-08T05:05:04.798Z,9.60
2023-03-08T05:07:33.102Z,9.27
2023-03-08T05:10:01.242Z,9.18
2023-03-08T05:12:29.565Z,9.52
2023-03-08T05:14:57.970Z,9.32
2023-03-08T05:17:27.579Z,8.95
2023-03-08T05:19:56.065Z,9.65
2023-03-08T05:22:24.672Z,9.88
2023-03-08T05:24:52.867Z,9.23
2023-03-08T05:27:21.104Z,9.20
2023-03-08T05:29:49.363Z,9.32
2023-03-08T05:32:17.816Z,9.13
2023-03-08T05:34:47.518Z,9.20
2023-03-08T05:37:15.778Z,8.85
2023-03-08T05:39:44.028Z,8.60
2023-03-08T05:42:13.081Z,9.00
2023-03-08T05:44:41.378Z,9.07
2023-03-08T05:47:09.709Z,9.23
2023-03-08T05:49:37.887Z,9.23
2023-03-08T05:52:07.802Z,9.88
2023-03-08T05:54:36.095Z,9.57
2023-03-08T05:57:04.508Z,9.95
2023-03-08T05:59:32.861Z,10.10
2023-03-08T06:02:01.301Z,9.95
2023-03-08T06:04:29.651Z,9.88
2023-03-08T06:06:58.187Z,9.50
2023-03-08T06:09:28.027Z,10.00
2023-03-08T06:11:57.047Z,10.45
2023-03-08T06:14:25.417Z,12.48
2023-03-08T06:16:53.614Z,11.52
2023-03-08T06:19:21.860Z,13.30
2023-03-08T06:21:50.011Z,10.00
2023-03-08T06:24:18.191Z,10.45
2023-03-08T06:26:47.897Z,22.13
2023-03-08T06:29:16.033Z,17.40
2023-03-08T06:31:47.537Z,13.50
2023-03-08T06:34:15.880Z,11.70
2023-03-08T06:36:44.102Z,9.43
2023-03-08T06:39:12.412Z,10.57
2023-03-08T06:41:41.146Z,10.07
2023-03-08T06:44:10.735Z,9.90
2023-03-08T06:46:39.148Z,10.18
2023-03-08T06:49:07.931Z,9.70
2023-03-08T06:51:36.144Z,9.63
2023-03-08T06:54:04.612Z,10.40
2023-03-08T06:56:32.827Z,10.52
2023-03-08T06:59:01.112Z,9.70
2023-03-08T07:01:31.155Z,10.07
2023-03-08T07:04:00.207Z,9.70
2023-03-08T07:06:28.465Z,9.65
2023-03-08T07:08:56.821Z,9.15
2023-03-08T07:11:26.892Z,10.00
2023-03-08T07:13:55.097Z,9.40
2023-03-08T07:16:23.784Z,10.35
2023-03-08T07:18:53.670Z,9.82
2023-03-08T07:21:22.138Z,9.23
2023-03-08T07:23:53.058Z,9.38
2023-03-08T07:26:21.286Z,9.57
2023-03-08T07:28:52.692Z,9.55
2023-03-08T07:31:20.838Z,10.88
2023-03-08T07:33:49.000Z,10.15
2023-03-08T07:36:19.086Z,10.25
2023-03-08T07:38:47.296Z,9.82
2023-03-08T07:41:15.466Z,10.18
2023-03-08T07:43:43.788Z,9.98
2023-03-08T07:46:11.947Z,9.98
2023-03-08T07:48:40.117Z,9.98
2023-03-08T07:51:10.487Z,9.52
2023-03-08T07:53:40.071Z,9.75
2023-03-08T07:56:10.429Z,10.65
2023-03-08T07:58:39.658Z,9.48
2023-03-08T08:01:10.618Z,9.40
2023-03-08T08:03:39.640Z,10.13
2023-03-08T08:06:08.565Z,10.20
2023-03-08T08:08:36.734Z,9.73
2023-03-08T08:11:12.713Z,10.88
2023-03-08T08:13:40.998Z,10.77
2023-03-08T08:16:09.599Z,9.73
2023-03-08T08:18:38.067Z,9.93
2023-03-08T08:21:08.849Z,9.77
2023-03-08T08:23:38.172Z,9.77
2023-03-08T08:26:08.954Z,10.15
2023-03-08T08:28:38.752Z,10.10
2023-03-08T08:31:09.386Z,9.38
2023-03-08T08:33:38.092Z,8.77
2023-03-08T08:36:08.430Z,9.13
2023-03-08T08:38:37.235Z,9.40
2023-03-08T08:41:09.205Z,8.95
2023-03-08T08:43:38.403Z,8.18
2023-03-08T08:46:07.159Z,7.97
2023-03-08T08:48:36.661Z,7.70
2023-03-08T08:51:06.022Z,7.13
2023-03-08T08:53:34.526Z,7.35
2023-03-08T08:56:25.577Z,7.40
2023-03-08T08:58:55.895Z,7.53
2023-03-08T09:01:26.519Z,6.93
2023-03-08T09:03:55.115Z,7.28
2023-03-08T09:06:25.147Z,7.40
2023-03-08T09:08:55.243Z,7.60
2023-03-08T09:11:26.458Z,6.97
2023-03-08T09:13:56.992Z,6.82
2023-03-08T09:16:27.246Z,6.78
2023-03-08T09:18:56.429Z,7.13
2023-03-08T09:21:25.349Z,6.70
2023-03-08T09:23:53.826Z,6.72
2023-03-08T09:26:22.402Z,6.95
2023-03-08T09:28:51.989Z,6.60
2023-03-08T09:31:20.167Z,6.60
2023-03-08T09:33:52.012Z,6.90
2023-03-08T09:36:20.984Z,7.43
2023-03-08T09:38:50.720Z,6.63
2023-03-08T09:41:38.088Z,6.50
2023-03-08T09:44:17.334Z,7.05
2023-03-08T09:46:49.903Z,6.45
2023-03-08T09:49:22.938Z,7.00
2023-03-08T09:51:59.379Z,6.78
2023-03-08T09:54:28.993Z,6.47
2023-03-08T09:56:57.423Z,6.63
2023-03-08T09:59:32.892Z,6.25
2023-03-08T10:02:11.845Z,6.43
2023-03-08T10:05:09.800Z,6.05
2023-03-08T10:07:50.872Z,5.93
2023-03-08T10:10:27.769Z,6.10
2023-03-08T10:13:06.481Z,6.20
2023-03-08T10:15:41.762Z,6.40
2023-03-08T10:18:16.658Z,6.53
2023-03-08T10:20:46.092Z,6.78
2023-03-08T10:23:20.881Z,5.95
2023-03-08T10:25:50.747Z,6.30
2023-03-08T10:28:21.019Z,6.05
2023-03-08T10:30:53.113Z,5.82
2023-03-08T10:33:24.215Z,5.63
2023-03-08T10:35:57.788Z,5.57
2023-03-08T10:41:02.492Z,5.97
2023-03-08T10:43:33.506Z,6.93
2023-03-08T10:46:06.244Z,6.35
2023-03-08T10:48:34.636Z,6.65
2023-03-08T10:51:05.044Z,6.35
2023-03-08T10:53:34.514Z,6.53
2023-03-08T10:56:03.133Z,6.85
2023-03-08T10:58:35.024Z,6.72
2023-03-08T11:01:07.130Z,6.90
2023-03-08T11:03:35.670Z,7.00
2023-03-08T11:06:06.094Z,7.72
2023-03-08T11:08:36.050Z,7.80
2023-03-08T11:11:07.503Z,7.20
2023-03-08T11:13:38.310Z,8.38
2023-03-08T11:16:29.050Z,8.27
2023-03-08T11:19:04.512Z,8.55
2023-03-08T11:21:44.845Z,7.50
2023-03-08T11:24:23.851Z,8.13
2023-03-08T11:27:03.178Z,8.18
2023-03-08T11:29:43.183Z,8.57
2023-03-08T11:32:29.403Z,7.82
2023-03-08T11:35:16.537Z,8.73
2023-03-08T11:37:50.077Z,8.57
2023-03-08T11:40:25.230Z,8.50
2023-03-08T11:43:09.196Z,9.57
2023-03-08T11:48:27.063Z,9.32
2023-03-08T11:50:59.607Z,8.50
2023-03-08T11:53:39.396Z,9.52
2023-03-08T11:56:36.252Z,9.20
2023-03-08T11:59:08.012Z,9.05
2023-03-08T12:01:42.696Z,10.07
2023-03-08T12:04:18.055Z,9.95
2023-03-08T12:06:48.502Z,10.02
2023-03-08T12:09:24.425Z,10.10
2023-03-08T12:12:00.885Z,10.25
2023-03-08T12:14:33.318Z,10.23
2023-03-08T12:17:08.828Z,10.73
2023-03-08T12:19:44.140Z,11.48
2023-03-08T12:22:25.232Z,11.95
2023-03-08T12:25:01.515Z,12.50
2023-03-08T12:27:36.537Z,11.85
2023-03-08T12:30:14.959Z,12.40
2023-03-08T12:32:44.952Z,13.27
2023-03-08T12:35:31.289Z,13.50
2023-03-08T12:38:02.771Z,12.70
2023-03-08T12:40:42.251Z,13.23
2023-03-08T12:43:13.637Z,13.07
2023-03-08T12:45:43.216Z,13.35
2023-03-08T12:48:21.580Z,14.00
2023-03-08T12:51:03.693Z,13.38
2023-03-08T12:53:38.869Z,13.60
2023-03-08T12:56:24.313Z,13.30
2023-03-08T12:58:55.974Z,13.52
2023-03-08T13:01:31.175Z,14.57
2023-03-08T13:04:00.261Z,14.15
2023-03-08T13:06:55.132Z,14.60
2023-03-08T13:09:28.495Z,14.25
2023-03-08T13:12:03.016Z,15.52
2023-03-08T13:14:41.401Z,15.43
2023-03-08T13:17:35.683Z,14.95
2023-03-08T13:20:12.886Z,15.90
2023-03-08T13:22:51.462Z,17.02
2023-03-08T13:25:33.373Z,17.90
2023-03-08T13:28:07.223Z,17.33
2023-03-08T13:30:37.818Z,18.67
2023-03-08T13:33:10.106Z,18.35
2023-03-08T13:35:38.758Z,18.70
2023-03-08T13:38:08.484Z,20.40
2023-03-08T13:40:36.726Z,19.52
2023-03-08T13:43:08.741Z,18.90
2023-03-08T13:45:37.250Z,18.20
2023-03-08T13:48:10.772Z,19.65
2023-03-08T13:50:44.137Z,19.67
2023-03-08T13:53:22.882Z,19.05
2023-03-08T13:55:54.568Z,19.95
2023-03-08T13:58:32.213Z,19.52
2023-03-08T14:01:11.052Z,19.50
2023-03-08T14:03:40.726Z,20.10
2023-03-08T14:06:19.710Z,20.80
2023-03-08T14:08:50.373Z,20.08
2023-03-08T14:11:22.900Z,20.33
2023-03-08T14:13:54.250Z,20.42
2023-03-08T14:16:31.097Z,21.80
2023-03-08T14:19:00.490Z,23.15
2023-03-08T14:21:30.456Z,22.83
2023-03-08T14:24:01.731Z,21.90
2023-03-08T14:26:33.869Z,22.60
2023-03-08T14:29:19.422Z,22.95
2023-03-08T14:32:06.360Z,22.58
2023-03-08T14:34:36.567Z,23.00
2023-03-08T14:37:07.797Z,22.08
2023-03-08T14:39:40.575Z,22.55
2023-03-08T14:42:22.316Z,23.33
2023-03-08T14:44:53.897Z,22.02
2023-03-08T14:47:24.861Z,22.30
2023-03-08T14:49:57.983Z,21.35
2023-03-08T14:52:29.102Z,22.52
2023-03-08T14:54:58.896Z,22.25
2023-03-08T14:57:29.326Z,23.95
2023-03-08T15:00:08.204Z,23.10
2023-03-08T15:02:37.721Z,23.10
2023-03-08T15:05:09.365Z,21.90
2023-03-08T15:07:38.470Z,21.70
2023-03-08T15:10:13.809Z,21.65
2023-03-08T15:12:42.581Z,21.75
2023-03-08T15:15:15.116Z,22.75
2023-03-08T15:17:43.935Z,22.52
2023-03-08T15:20:14.415Z,22.08
2023-03-08T15:22:46.642Z,22.00
2023-03-08T15:25:19.246Z,22.25
2023-03-08T15:27:49.730Z,22.15
2023-03-08T15:30:19.622Z,23.98
2023-03-08T15:32:48.231Z,23.38
2023-03-08T15:35:17.005Z,22.52
2023-03-08T15:37:45.704Z,23.48
2023-03-08T15:40:18.696Z,22.38
2023-03-08T15:42:46.932Z,22.00
2023-03-08T15:45:16.418Z,21.80
2023-03-08T15:47:45.604Z,22.48
2023-03-08T15:50:17.005Z,22.52
2023-03-08T15:52:45.720Z,23.83
2023-03-08T15:55:15.377Z,22.55
2023-03-08T15:57:44.996Z,21.38
2023-03-08T16:00:15.801Z,22.05
2023-03-08T16:02:44.507Z,22.83
2023-03-08T16:05:14.288Z,20.95
2023-03-08T16:07:43.117Z,21.90
2023-03-08T16:10:15.622Z,22.85
2023-03-08T16:12:45.240Z,24.80
2023-03-08T16:15:13.564Z,22.27
2023-03-08T16:17:41.846Z,23.42
2023-03-08T16:20:11.405Z,22.60
2023-03-08T16:22:39.856Z,23.20
2023-03-08T16:25:09.466Z,22.90
2023-03-08T16:27:38.345Z,22.35
2023-03-08T16:30:10.234Z,21.42
2023-03-08T16:32:38.446Z,22.23
2023-03-08T16:35:07.657Z,21.55
2023-03-08T16:37:36.145Z,22.45
2023-03-08T16:40:07.288Z,23.63
2023-03-08T16:42:35.795Z,23.27
2023-03-08T16:45:05.012Z,23.38
2023-03-08T16:47:34.714Z,22.92
2023-03-08T16:50:04.162Z,23.10
2023-03-08T16:52:32.570Z,22.42
2023-03-08T16:55:00.807Z,23.30
2023-03-08T16:57:29.292Z,23.65
2023-03-08T16:59:57.910Z,23.92
2023-03-08T17:02:26.166Z,23.45
2023-03-08T17:04:56.528Z,23.48
2023-03-08T17:07:26.203Z,24.65
2023-03-08T17:09:55.407Z,24.40
2023-03-08T17:12:23.930Z,24.13
2023-03-08T17:14:52.518Z,24.88
2023-03-08T17:17:20.743Z,24.60
2023-03-08T17:19:52.845Z,24.13
2023-03-08T17:22:22.553Z,23.65
2023-03-08T17:24:50.674Z,24.08
2023-03-08T17:27:18.881Z,24.10
2023-03-08T17:29:47.261Z,25.90
2023-03-08T17:32:15.448Z,24.85
2023-03-08T17:34:43.665Z,26.25
2023-03-08T17:37:12.352Z,26.98
2023-03-08T17:39:42.333Z,28.48
2023-03-08T17:42:11.405Z,27.98
2023-03-08T17:44:39.704Z,29.83
2023-03-08T17:47:08.041Z,27.98
2023-03-08T17:49:36.228Z,29.95
2023-03-08T17:52:04.609Z,28.63
2023-03-08T17:54:32.825Z,28.65
2023-03-08T17:57:05.529Z,28.85
2023-03-08T17:59:33.719Z,29.60
2023-03-08T18:02:02.097Z,30.92
2023-03-08T18:04:30.907Z,30.30
2023-03-08T18:06:59.202Z,31.73
2023-03-08T18:09:29.782Z,29.23
2023-03-08T18:11:58.201Z,30.77
2023-03-08T18:14:39.199Z,30.98
2023-03-08T18:17:08.509Z,31.65
2023-03-08T18:19:36.989Z,30.70
2023-03-08T18:22:05.705Z,31.73
2023-03-08T18:24:34.240Z,29.58
2023-03-08T18:27:05.381Z,30.98
2023-03-08T18:29:36.665Z,31.02
2023-03-08T18:32:06.307Z,29.45
2023-03-08T18:34:35.319Z,29.23
2023-03-08T18:37:03.924Z,30.27
2023-03-08T18:39:32.101Z,31.27
2023-03-08T18:42:01.373Z,29.65
2023-03-08T18:44:29.802Z,30.52
2023-03-08T18:47:00.454Z,29.55
2023-03-08T18:49:28.833Z,29.27
2023-03-08T18:51:58.290Z,28.45
2023-03-08T18:54:26.772Z,30.45
2023-03-08T18:56:57.097Z,28.33
2023-03-08T18:59:28.238Z,28.05
2023-03-08T19:01:57.310Z,28.65
2023-03-08T19:04:27.258Z,28.83
2023-03-08T19:06:55.713Z,30.42
2023-03-08T19:09:24.373Z,28.38
2023-03-08T19:11:52.657Z,27.65
2023-03-08T19:14:21.151Z,26.90
2023-03-08T19:16:49.458Z,27.83
2023-03-08T19:19:18.254Z,28.42
2023-03-08T19:21:49.761Z,26.02
2023-03-08T19:24:20.923Z,27.70
2023-03-08T19:26:51.424Z,27.90
2023-03-08T19:29:21.859Z,28.15
2023-03-08T19:31:52.723Z,27.95
2023-03-08T19:34:23.896Z,29.17
2023-03-08T19:36:54.018Z,28.42
2023-03-08T19:39:23.989Z,28.55
2023-03-08T19:41:53.724Z,28.33
2023-03-08T19:44:23.914Z,31.08
2023-03-08T19:46:52.413Z,36.65
2023-03-08T19:49:22.683Z,34.95
2023-03-08T19:51:55.291Z,34.58
2023-03-08T19:54:25.079Z,31.40
2023-03-08T19:56:54.256Z,31.45
2023-03-08T19:59:23.099Z,31.15
2023-03-08T20:01:51.874Z,30.08
2023-03-08T20:04:20.781Z,31.90
2023-03-08T20:06:50.956Z,29.80
2023-03-08T20:09:22.853Z,30.15
2023-03-08T20:11:53.908Z,30.77
2023-03-08T20:14:23.967Z,31.67
2023-03-08T20:16:52.643Z,29.75
2023-03-08T20:19:21.033Z,30.48
2023-03-08T20:21:49.780Z,30.70
2023-03-08T20:24:19.248Z,32.15
2023-03-08T20:26:49.060Z,30.85
2023-03-08T20:29:17.888Z,32.22
2023-03-08T20:31:48.262Z,31.63
2023-03-08T20:34:16.983Z,31.60
2023-03-08T20:36:45.449Z,31.75
2023-03-08T20:39:13.676Z,31.38
2023-03-08T20:41:41.920Z,30.50
2023-03-08T20:44:13.081Z,32.63
2023-03-08T20:46:41.385Z,30.70
2023-03-08T20:49:11.229Z,31.60
2023-03-08T20:51:39.525Z,32.95
2023-03-08T20:54:07.973Z,32.40
2023-03-08T20:56:36.197Z,32.10
2023-03-08T20:59:05.342Z,34.25
2023-03-08T21:01:35.254Z,32.70
2023-03-08T21:04:03.590Z,33.22
2023-03-08T21:06:32.988Z,32.88
2023-03-08T21:09:01.697Z,32.50
2023-03-08T21:11:30.473Z,31.70
2023-03-08T21:13:59.133Z,32.90
2023-03-08T21:16:28.798Z,32.05
2023-03-08T21:19:00.861Z,34.63
2023-03-08T21:21:33.524Z,31.30
2023-03-08T21:24:04.702Z,32.67
2023-03-08T21:26:33.523Z,31.15
2023-03-08T21:29:03.685Z,30.08
2023-03-08T21:31:33.455Z,30.90
2023-03-08T21:34:05.075Z,31.33
2023-03-08T21:36:33.394Z,29.48
2023-03-08T21:39:02.112Z,28.83
2023-03-08T21:41:31.820Z,28.73
2023-03-08T21:44:00.456Z,27.60
2023-03-08T21:46:29.021Z,29.83
2023-03-08T21:48:57.893Z,28.50
2023-03-08T21:51:27.512Z,29.38
2023-03-08T21:53:57.745Z,27.42
2023-03-08T21:56:26.040Z,27.30
2023-03-08T21:58:54.487Z,27.38
2023-03-08T22:01:24.874Z,29.08
2023-03-08T22:03:54.651Z,28.23
2023-03-08T22:06:22.891Z,27.25
2023-03-08T22:08:52.921Z,28.08
2023-03-08T22:11:22.515Z,26.25
2023-03-08T22:13:51.895Z,26.35
2023-03-08T22:16:23.121Z,25.75
2023-03-08T22:18:53.836Z,24.38
2023-03-08T22:21:22.601Z,25.00
2023-03-08T22:23:53.061Z,24.27
2023-03-08T22:26:21.935Z,23.75
2023-03-08T22:28:50.432Z,21.75
2023-03-08T22:31:22.245Z,21.05
2023-03-08T22:33:50.680Z,21.20
2023-03-08T22:36:20.518Z,20.42
2023-03-08T22:38:49.352Z,20.65
2023-03-08T22:41:21.186Z,20.42
2023-03-08T22:43:51.110Z,20.80
2023-03-08T22:46:21.487Z,19.38
2023-03-08T22:48:51.510Z,20.55
2023-03-08T22:51:21.910Z,19.85
2023-03-08T22:53:50.689Z,18.80
2023-03-08T22:56:23.151Z,19.63
2023-03-08T22:58:51.799Z,18.13
2023-03-08T23:01:22.491Z,17.77
2023-03-08T23:03:51.457Z,18.00
2023-03-08T23:06:20.206Z,16.98
2023-03-08T23:08:48.980Z,17.52
2023-03-08T23:11:17.509Z,18.80
2023-03-08T23:13:47.232Z,16.67
2023-03-08T23:16:17.266Z,17.48
2023-03-08T23:18:49.025Z,18.63
2023-03-08T23:21:19.010Z,18.02
2023-03-08T23:23:48.146Z,17.52
2023-03-08T23:26:21.276Z,19.38
2023-03-08T23:28:51.127Z,19.65
2023-03-08T23:31:22.427Z,18.70
2023-03-08T23:33:51.640Z,19.13
2023-03-08T23:36:23.990Z,20.00
2023-03-08T23:38:53.358Z,19.30
2023-03-08T23:41:21.923Z,20.90
2023-03-08T23:43:55.400Z,19.70
2023-03-08T23:46:23.714Z,20.60
2023-03-08T23:48:55.307Z,21.33
2023-03-08T23:51:25.200Z,20.75
2023-03-08T23:53:56.205Z,20.88
2023-03-08T23:56:30.239Z,21.10
2023-03-08T23:59:02.509Z,20.42
